sensor_id;sensor_type;location;lat;lon;timestamp;temperature;humidity
37530;DHT22;23374;52.758;6.872;2023-09-19T00:00:14;15.90;99.90
37530;DHT22;23374;52.758;6.872;2023-09-19T00:02:34;15.90;99.90
37530;DHT22;23374;52.758;6.872;2023-09-19T00:05:50;15.90;99.90
37530;DHT22;23374;52.758;6.872;2023-09-19T00:08:10;15.80;99.90
37530;DHT22;23374;52.758;6.872;2023-09-19T00:10:32;15.80;99.90
37530;DHT22;23374;52.758;6.872;2023-09-19T00:12:55;15.80;99.90
37530;DHT22;23374;52.758;6.872;2023-09-19T00:15:15;15.70;99.90
37530;DHT22;23374;52.758;6.872;2023-09-19T00:17:37;15.70;99.90
37530;DHT22;23374;52.758;6.872;2023-09-19T00:19:58;15.70;99.90
37530;DHT22;23374;52.758;6.872;2023-09-19T00:22:18;15.60;99.90
37530;DHT22;23374;52.758;6.872;2023-09-19T00:24:39;15.60;99.90
37530;DHT22;23374;52.758;6.872;2023-09-19T00:27:00;15.50;99.90
37530;DHT22;23374;52.758;6.872;2023-09-19T00:29:21;15.50;1.00
37530;DHT22;23374;52.758;6.872;2023-09-19T00:31:44;15.50;99.90
37530;DHT22;23374;52.758;6.872;2023-09-19T00:34:04;15.40;1.00
37530;DHT22;23374;52.758;6.872;2023-09-19T00:36:30;15.40;1.00
37530;DHT22;23374;52.758;6.872;2023-09-19T00:38:50;15.30;1.00
37530;DHT22;23374;52.758;6.872;2023-09-19T00:41:11;15.30;1.00
37530;DHT22;23374;52.758;6.872;2023-09-19T00:43:32;15.30;1.00
37530;DHT22;23374;52.758;6.872;2023-09-19T00:45:56;15.20;1.00
37530;DHT22;23374;52.758;6.872;2023-09-19T00:48:16;15.30;1.00
37530;DHT22;23374;52.758;6.872;2023-09-19T00:50:38;15.30;1.00
37530;DHT22;23374;52.758;6.872;2023-09-19T00:53:02;15.30;1.00
37530;DHT22;23374;52.758;6.872;2023-09-19T00:55:30;15.20;1.00
37530;DHT22;23374;52.758;6.872;2023-09-19T00:57:53;15.20;1.00
37530;DHT22;23374;52.758;6.872;2023-09-19T01:00:16;15.20;1.00
37530;DHT22;23374;52.758;6.872;2023-09-19T01:02:36;15.20;1.00
37530;DHT22;23374;52.758;6.872;2023-09-19T01:05:55;15.20;1.00
37530;DHT22;23374;52.758;6.872;2023-09-19T01:08:15;15.20;1.00
37530;DHT22;23374;52.758;6.872;2023-09-19T01:10:39;15.20;1.00
37530;DHT22;23374;52.758;6.872;2023-09-19T01:25:26;15.10;1.00
37530;DHT22;23374;52.758;6.872;2023-09-19T01:29:49;15.10;39.20
37530;DHT22;23374;52.758;6.872;2023-09-19T01:32:16;15.10;99.90
37530;DHT22;23374;52.758;6.872;2023-09-19T01:34:48;15.10;74.40
37530;DHT22;23374;52.758;6.872;2023-09-19T01:37:09;15.10;99.90
37530;DHT22;23374;52.758;6.872;2023-09-19T01:39:31;15.10;98.50
37530;DHT22;23374;52.758;6.872;2023-09-19T01:42:06;15.10;99.90
37530;DHT22;23374;52.758;6.872;2023-09-19T01:45:03;15.20;99.90
37530;DHT22;23374;52.758;6.872;2023-09-19T01:47:41;15.20;99.90
37530;DHT22;23374;52.758;6.872;2023-09-19T01:50:34;15.20;50.10
37530;DHT22;23374;52.758;6.872;2023-09-19T01:53:26;15.10;61.60
37530;DHT22;23374;52.758;6.872;2023-09-19T01:55:51;15.10;49.60
37530;DHT22;23374;52.758;6.872;2023-09-19T01:58:27;15.10;5.00
37530;DHT22;23374;52.758;6.872;2023-09-19T02:00:51;15.10;3.70
37530;DHT22;23374;52.758;6.872;2023-09-19T02:03:12;15.10;1.00
37530;DHT22;23374;52.758;6.872;2023-09-19T02:06:00;15.10;1.00
37530;DHT22;23374;52.758;6.872;2023-09-19T02:08:22;15.10;1.00
37530;DHT22;23374;52.758;6.872;2023-09-19T02:10:47;15.10;1.00
37530;DHT22;23374;52.758;6.872;2023-09-19T02:13:09;15.00;1.00
37530;DHT22;23374;52.758;6.872;2023-09-19T02:15:29;15.00;1.00
37530;DHT22;23374;52.758;6.872;2023-09-19T02:17:53;15.00;1.00
37530;DHT22;23374;52.758;6.872;2023-09-19T02:20:13;15.00;1.00
37530;DHT22;23374;52.758;6.872;2023-09-19T02:22:37;14.90;1.00
37530;DHT22;23374;52.758;6.872;2023-09-19T02:24:58;15.00;1.00
37530;DHT22;23374;52.758;6.872;2023-09-19T02:27:20;14.90;1.00
37530;DHT22;23374;52.758;6.872;2023-09-19T02:29:41;14.90;1.00
37530;DHT22;23374;52.758;6.872;2023-09-19T02:32:02;14.90;1.00
37530;DHT22;23374;52.758;6.872;2023-09-19T02:34:22;14.90;1.00
37530;DHT22;23374;52.758;6.872;2023-09-19T02:36:43;14.90;1.00
37530;DHT22;23374;52.758;6.872;2023-09-19T02:39:05;14.80;1.00
37530;DHT22;23374;52.758;6.872;2023-09-19T02:41:26;14.80;1.00
37530;DHT22;23374;52.758;6.872;2023-09-19T02:43:47;14.80;1.00
37530;DHT22;23374;52.758;6.872;2023-09-19T02:46:07;14.80;1.00
37530;DHT22;23374;52.758;6.872;2023-09-19T02:48:28;14.80;1.00
37530;DHT22;23374;52.758;6.872;2023-09-19T02:50:50;14.80;1.00
37530;DHT22;23374;52.758;6.872;2023-09-19T02:53:11;14.80;1.00
37530;DHT22;23374;52.758;6.872;2023-09-19T02:55:33;14.70;1.00
37530;DHT22;23374;52.758;6.872;2023-09-19T02:57:54;14.70;1.00
37530;DHT22;23374;52.758;6.872;2023-09-19T03:00:16;14.70;1.00
37530;DHT22;23374;52.758;6.872;2023-09-19T03:02:37;14.70;1.00
37530;DHT22;23374;52.758;6.872;2023-09-19T03:06:08;14.70;1.00
37530;DHT22;23374;52.758;6.872;2023-09-19T03:08:29;14.60;1.00
37530;DHT22;23374;52.758;6.872;2023-09-19T03:10:49;14.60;1.00
37530;DHT22;23374;52.758;6.872;2023-09-19T03:13:10;14.70;1.00
37530;DHT22;23374;52.758;6.872;2023-09-19T03:15:30;14.60;1.00
37530;DHT22;23374;52.758;6.872;2023-09-19T03:17:51;14.60;1.00
37530;DHT22;23374;52.758;6.872;2023-09-19T03:20:14;14.60;1.00
37530;DHT22;23374;52.758;6.872;2023-09-19T03:22:37;14.60;1.00
37530;DHT22;23374;52.758;6.872;2023-09-19T03:24:58;14.60;1.00
37530;DHT22;23374;52.758;6.872;2023-09-19T03:27:19;14.60;1.00
37530;DHT22;23374;52.758;6.872;2023-09-19T03:29:40;14.60;1.00
37530;DHT22;23374;52.758;6.872;2023-09-19T03:32:01;14.60;1.00
37530;DHT22;23374;52.758;6.872;2023-09-19T03:34:21;14.60;1.00
37530;DHT22;23374;52.758;6.872;2023-09-19T03:36:42;14.60;1.00
37530;DHT22;23374;52.758;6.872;2023-09-19T03:39:03;14.60;1.00
37530;DHT22;23374;52.758;6.872;2023-09-19T03:41:25;14.60;1.00
37530;DHT22;23374;52.758;6.872;2023-09-19T03:43:45;14.60;1.00
37530;DHT22;23374;52.758;6.872;2023-09-19T03:46:05;14.70;1.00
37530;DHT22;23374;52.758;6.872;2023-09-19T03:48:27;14.70;1.00
37530;DHT22;23374;52.758;6.872;2023-09-19T03:50:48;14.70;1.00
37530;DHT22;23374;52.758;6.872;2023-09-19T03:53:08;14.70;1.00
37530;DHT22;23374;52.758;6.872;2023-09-19T03:55:29;14.80;1.00
37530;DHT22;23374;52.758;6.872;2023-09-19T03:57:52;14.80;1.00
37530;DHT22;23374;52.758;6.872;2023-09-19T04:00:13;14.80;1.00
37530;DHT22;23374;52.758;6.872;2023-09-19T04:02:34;14.80;1.00
37530;DHT22;23374;52.758;6.872;2023-09-19T04:04:55;14.80;1.00
37530;DHT22;23374;52.758;6.872;2023-09-19T04:07:16;14.80;1.00
37530;DHT22;23374;52.758;6.872;2023-09-19T04:09:36;14.80;1.00
37530;DHT22;23374;52.758;6.872;2023-09-19T04:11:56;14.80;1.00
37530;DHT22;23374;52.758;6.872;2023-09-19T04:14:17;14.80;1.00
37530;DHT22;23374;52.758;6.872;2023-09-19T04:16:38;14.80;1.00
37530;DHT22;23374;52.758;6.872;2023-09-19T04:18:59;14.80;1.00
37530;DHT22;23374;52.758;6.872;2023-09-19T04:21:19;14.80;3.70
37530;DHT22;23374;52.758;6.872;2023-09-19T04:23:39;14.80;1.00
37530;DHT22;23374;52.758;6.872;2023-09-19T04:26:00;14.80;1.00
37530;DHT22;23374;52.758;6.872;2023-09-19T04:28:20;14.80;1.00
37530;DHT22;23374;52.758;6.872;2023-09-19T04:30:40;14.80;1.00
37530;DHT22;23374;52.758;6.872;2023-09-19T04:33:01;14.80;1.00
37530;DHT22;23374;52.758;6.872;2023-09-19T04:35:22;14.80;1.00
37530;DHT22;23374;52.758;6.872;2023-09-19T04:39:22;14.80;1.00
37530;DHT22;23374;52.758;6.872;2023-09-19T04:41:45;14.80;1.00
37530;DHT22;23374;52.758;6.872;2023-09-19T04:44:08;14.80;1.00
37530;DHT22;23374;52.758;6.872;2023-09-19T04:46:28;14.80;1.00
37530;DHT22;23374;52.758;6.872;2023-09-19T04:48:48;14.80;1.00
37530;DHT22;23374;52.758;6.872;2023-09-19T04:51:08;14.80;1.00
37530;DHT22;23374;52.758;6.872;2023-09-19T04:53:30;14.80;1.00
37530;DHT22;23374;52.758;6.872;2023-09-19T04:55:53;14.70;1.00
37530;DHT22;23374;52.758;6.872;2023-09-19T04:58:15;14.80;1.00
37530;DHT22;23374;52.758;6.872;2023-09-19T05:00:36;14.70;99.90
37530;DHT22;23374;52.758;6.872;2023-09-19T05:02:57;14.70;99.90
37530;DHT22;23374;52.758;6.872;2023-09-19T05:05:17;14.70;99.90
37530;DHT22;23374;52.758;6.872;2023-09-19T05:07:39;14.70;99.90
37530;DHT22;23374;52.758;6.872;2023-09-19T05:10:01;14.70;99.90
37530;DHT22;23374;52.758;6.872;2023-09-19T05:12:26;14.70;99.90
37530;DHT22;23374;52.758;6.872;2023-09-19T05:14:47;14.70;99.90
37530;DHT22;23374;52.758;6.872;2023-09-19T05:17:07;14.70;99.90
37530;DHT22;23374;52.758;6.872;2023-09-19T05:19:28;14.70;99.90
37530;DHT22;23374;52.758;6.872;2023-09-19T05:21:48;14.70;99.90
37530;DHT22;23374;52.758;6.872;2023-09-19T05:24:09;14.70;99.90
37530;DHT22;23374;52.758;6.872;2023-09-19T05:26:32;14.70;99.90
37530;DHT22;23374;52.758;6.872;2023-09-19T05:28:52;14.70;99.90
37530;DHT22;23374;52.758;6.872;2023-09-19T05:31:13;14.60;99.90
37530;DHT22;23374;52.758;6.872;2023-09-19T05:33:34;14.60;99.90
37530;DHT22;23374;52.758;6.872;2023-09-19T05:35:55;14.60;99.90
37530;DHT22;23374;52.758;6.872;2023-09-19T05:38:16;14.60;99.90
37530;DHT22;23374;52.758;6.872;2023-09-19T05:40:40;14.60;99.90
37530;DHT22;23374;52.758;6.872;2023-09-19T05:43:05;14.60;90.30
37530;DHT22;23374;52.758;6.872;2023-09-19T05:45:26;14.50;96.80
37530;DHT22;23374;52.758;6.872;2023-09-19T05:47:50;14.50;93.10
37530;DHT22;23374;52.758;6.872;2023-09-19T05:50:12;14.50;59.90
37530;DHT22;23374;52.758;6.872;2023-09-19T05:52:32;14.50;99.90
37530;DHT22;23374;52.758;6.872;2023-09-19T05:54:53;14.40;90.80
37530;DHT22;23374;52.758;6.872;2023-09-19T05:57:14;14.40;85.40
37530;DHT22;23374;52.758;6.872;2023-09-19T05:59:35;14.40;14.20
37530;DHT22;23374;52.758;6.872;2023-09-19T06:01:55;14.40;43.70
37530;DHT22;23374;52.758;6.872;2023-09-19T06:04:16;14.40;44.30
37530;DHT22;23374;52.758;6.872;2023-09-19T06:06:36;14.40;1.00
37530;DHT22;23374;52.758;6.872;2023-09-19T06:08:59;14.40;25.50
37530;DHT22;23374;52.758;6.872;2023-09-19T06:11:19;14.40;8.90
37530;DHT22;23374;52.758;6.872;2023-09-19T06:13:40;14.40;11.30
37530;DHT22;23374;52.758;6.872;2023-09-19T06:16:00;14.40;1.00
37530;DHT22;23374;52.758;6.872;2023-09-19T06:18:25;14.40;1.00
37530;DHT22;23374;52.758;6.872;2023-09-19T06:20:47;14.50;1.00
37530;DHT22;23374;52.758;6.872;2023-09-19T06:23:08;14.50;1.00
37530;DHT22;23374;52.758;6.872;2023-09-19T06:25:29;14.60;1.00
37530;DHT22;23374;52.758;6.872;2023-09-19T06:27:51;14.60;1.00
37530;DHT22;23374;52.758;6.872;2023-09-19T06:30:13;14.60;1.00
37530;DHT22;23374;52.758;6.872;2023-09-19T06:32:34;14.70;1.00
37530;DHT22;23374;52.758;6.872;2023-09-19T06:34:54;14.70;1.00
37530;DHT22;23374;52.758;6.872;2023-09-19T06:37:15;14.70;1.00
37530;DHT22;23374;52.758;6.872;2023-09-19T06:39:35;14.70;1.00
37530;DHT22;23374;52.758;6.872;2023-09-19T06:41:55;14.80;1.00
37530;DHT22;23374;52.758;6.872;2023-09-19T06:44:16;14.80;1.00
37530;DHT22;23374;52.758;6.872;2023-09-19T06:46:36;14.80;1.00
37530;DHT22;23374;52.758;6.872;2023-09-19T06:49:00;14.80;1.00
37530;DHT22;23374;52.758;6.872;2023-09-19T06:51:20;14.80;1.00
37530;DHT22;23374;52.758;6.872;2023-09-19T06:53:41;14.80;1.00
37530;DHT22;23374;52.758;6.872;2023-09-19T06:56:02;14.80;1.00
37530;DHT22;23374;52.758;6.872;2023-09-19T06:58:23;14.80;1.00
37530;DHT22;23374;52.758;6.872;2023-09-19T07:00:43;14.80;1.00
37530;DHT22;23374;52.758;6.872;2023-09-19T07:03:06;14.80;1.00
37530;DHT22;23374;52.758;6.872;2023-09-19T07:05:34;14.90;1.00
37530;DHT22;23374;52.758;6.872;2023-09-19T07:08:00;14.90;1.00
37530;DHT22;23374;52.758;6.872;2023-09-19T07:10:21;14.90;1.00
37530;DHT22;23374;52.758;6.872;2023-09-19T07:12:44;14.90;1.00
37530;DHT22;23374;52.758;6.872;2023-09-19T07:15:06;14.90;1.00
37530;DHT22;23374;52.758;6.872;2023-09-19T07:17:26;15.00;1.00
37530;DHT22;23374;52.758;6.872;2023-09-19T07:19:48;15.00;99.90
37530;DHT22;23374;52.758;6.872;2023-09-19T07:22:10;15.10;1.00
37530;DHT22;23374;52.758;6.872;2023-09-19T07:24:30;15.20;1.00
37530;DHT22;23374;52.758;6.872;2023-09-19T07:26:51;15.20;1.00
37530;DHT22;23374;52.758;6.872;2023-09-19T07:29:11;15.30;1.00
37530;DHT22;23374;52.758;6.872;2023-09-19T07:31:32;15.30;99.90
37530;DHT22;23374;52.758;6.872;2023-09-19T07:33:52;15.40;1.00
37530;DHT22;23374;52.758;6.872;2023-09-19T07:36:12;15.40;99.90
37530;DHT22;23374;52.758;6.872;2023-09-19T07:38:36;15.50;99.90
37530;DHT22;23374;52.758;6.872;2023-09-19T07:41:02;15.50;1.00
37530;DHT22;23374;52.758;6.872;2023-09-19T07:43:23;15.60;1.00
37530;DHT22;23374;52.758;6.872;2023-09-19T07:45:45;15.60;1.00
37530;DHT22;23374;52.758;6.872;2023-09-19T07:48:06;15.60;1.00
37530;DHT22;23374;52.758;6.872;2023-09-19T07:50:34;15.70;99.90
37530;DHT22;23374;52.758;6.872;2023-09-19T07:52:57;15.70;99.90
37530;DHT22;23374;52.758;6.872;2023-09-19T07:55:20;15.80;99.90
37530;DHT22;23374;52.758;6.872;2023-09-19T07:57:44;15.80;99.90
37530;DHT22;23374;52.758;6.872;2023-09-19T08:00:06;15.90;99.90
37530;DHT22;23374;52.758;6.872;2023-09-19T08:02:27;15.90;99.90
37530;DHT22;23374;52.758;6.872;2023-09-19T08:04:48;16.00;99.90
37530;DHT22;23374;52.758;6.872;2023-09-19T08:07:09;16.10;99.90
37530;DHT22;23374;52.758;6.872;2023-09-19T08:09:29;16.20;99.90
37530;DHT22;23374;52.758;6.872;2023-09-19T08:11:53;16.20;99.90
37530;DHT22;23374;52.758;6.872;2023-09-19T08:14:14;16.20;99.90
37530;DHT22;23374;52.758;6.872;2023-09-19T08:16:34;16.20;99.90
37530;DHT22;23374;52.758;6.872;2023-09-19T08:18:55;16.30;99.90
37530;DHT22;23374;52.758;6.872;2023-09-19T08:21:15;16.30;99.90
37530;DHT22;23374;52.758;6.872;2023-09-19T08:23:37;16.30;99.90
37530;DHT22;23374;52.758;6.872;2023-09-19T08:25:58;16.30;99.90
37530;DHT22;23374;52.758;6.872;2023-09-19T08:28:22;16.30;99.90
37530;DHT22;23374;52.758;6.872;2023-09-19T08:30:45;16.30;99.90
37530;DHT22;23374;52.758;6.872;2023-09-19T08:33:05;16.40;99.90
37530;DHT22;23374;52.758;6.872;2023-09-19T08:35:27;16.40;99.90
37530;DHT22;23374;52.758;6.872;2023-09-19T08:37:48;16.40;99.90
37530;DHT22;23374;52.758;6.872;2023-09-19T08:40:10;16.40;99.90
37530;DHT22;23374;52.758;6.872;2023-09-19T08:42:30;16.40;99.90
37530;DHT22;23374;52.758;6.872;2023-09-19T08:44:51;16.40;99.90
37530;DHT22;23374;52.758;6.872;2023-09-19T08:47:15;16.50;99.90
37530;DHT22;23374;52.758;6.872;2023-09-19T08:50:04;16.50;99.90
37530;DHT22;23374;52.758;6.872;2023-09-19T08:52:43;16.60;99.90
37530;DHT22;23374;52.758;6.872;2023-09-19T08:55:06;16.70;99.90
37530;DHT22;23374;52.758;6.872;2023-09-19T08:57:33;16.70;99.90
37530;DHT22;23374;52.758;6.872;2023-09-19T08:59:57;16.70;99.90
37530;DHT22;23374;52.758;6.872;2023-09-19T09:02:20;16.70;47.70
37530;DHT22;23374;52.758;6.872;2023-09-19T09:04:43;16.70;99.90
37530;DHT22;23374;52.758;6.872;2023-09-19T09:07:04;16.80;19.90
37530;DHT22;23374;52.758;6.872;2023-09-19T09:09:25;16.80;1.00
37530;DHT22;23374;52.758;6.872;2023-09-19T09:11:48;16.90;96.60
37530;DHT22;23374;52.758;6.872;2023-09-19T09:14:14;17.00;16.30
37530;DHT22;23374;52.758;6.872;2023-09-19T09:16:34;17.10;21.50
37530;DHT22;23374;52.758;6.872;2023-09-19T09:18:55;17.10;1.00
37530;DHT22;23374;52.758;6.872;2023-09-19T09:21:15;17.10;1.00
37530;DHT22;23374;52.758;6.872;2023-09-19T09:23:36;17.20;1.00
37530;DHT22;23374;52.758;6.872;2023-09-19T09:25:57;17.20;1.00
37530;DHT22;23374;52.758;6.872;2023-09-19T09:28:21;17.20;1.00
37530;DHT22;23374;52.758;6.872;2023-09-19T09:30:42;17.30;1.00
37530;DHT22;23374;52.758;6.872;2023-09-19T09:33:13;17.30;1.00
37530;DHT22;23374;52.758;6.872;2023-09-19T09:35:34;17.40;1.00
37530;DHT22;23374;52.758;6.872;2023-09-19T09:38:02;17.40;1.00
37530;DHT22;23374;52.758;6.872;2023-09-19T09:40:46;17.40;99.90
37530;DHT22;23374;52.758;6.872;2023-09-19T09:43:34;17.50;1.00
37530;DHT22;23374;52.758;6.872;2023-09-19T09:46:19;17.60;99.90
37530;DHT22;23374;52.758;6.872;2023-09-19T09:49:02;17.60;1.00
37530;DHT22;23374;52.758;6.872;2023-09-19T09:51:49;17.70;1.00
37530;DHT22;23374;52.758;6.872;2023-09-19T09:54:19;17.80;99.90
37530;DHT22;23374;52.758;6.872;2023-09-19T09:57:00;17.80;1.00
37530;DHT22;23374;52.758;6.872;2023-09-19T09:59:21;17.90;99.90
37530;DHT22;23374;52.758;6.872;2023-09-19T10:01:48;17.90;99.90
37530;DHT22;23374;52.758;6.872;2023-09-19T10:04:36;17.80;3.90
37530;DHT22;23374;52.758;6.872;2023-09-19T10:07:04;17.90;99.90
37530;DHT22;23374;52.758;6.872;2023-09-19T10:09:31;17.90;99.90
37530;DHT22;23374;52.758;6.872;2023-09-19T10:12:07;18.00;1.00
37530;DHT22;23374;52.758;6.872;2023-09-19T10:14:32;18.00;99.90
37530;DHT22;23374;52.758;6.872;2023-09-19T10:16:56;18.00;99.90
37530;DHT22;23374;52.758;6.872;2023-09-19T10:20:06;18.00;99.90
37530;DHT22;23374;52.758;6.872;2023-09-19T10:22:39;18.10;5.40
37530;DHT22;23374;52.758;6.872;2023-09-19T10:25:04;18.20;99.90
37530;DHT22;23374;52.758;6.872;2023-09-19T10:27:27;18.20;1.00
37530;DHT22;23374;52.758;6.872;2023-09-19T10:29:50;18.20;99.90
37530;DHT22;23374;52.758;6.872;2023-09-19T10:32:14;18.30;1.00
37530;DHT22;23374;52.758;6.872;2023-09-19T10:34:42;18.30;99.90
37530;DHT22;23374;52.758;6.872;2023-09-19T10:37:04;18.30;99.90
37530;DHT22;23374;52.758;6.872;2023-09-19T10:39:26;18.40;1.00
37530;DHT22;23374;52.758;6.872;2023-09-19T10:41:53;18.40;99.90
37530;DHT22;23374;52.758;6.872;2023-09-19T10:44:17;18.40;99.90
37530;DHT22;23374;52.758;6.872;2023-09-19T10:46:41;18.30;99.90
37530;DHT22;23374;52.758;6.872;2023-09-19T10:49:02;18.30;1.00
37530;DHT22;23374;52.758;6.872;2023-09-19T10:51:25;18.40;1.00
37530;DHT22;23374;52.758;6.872;2023-09-19T10:53:57;18.50;9.00
37530;DHT22;23374;52.758;6.872;2023-09-19T10:56:42;18.50;1.00
37530;DHT22;23374;52.758;6.872;2023-09-19T10:59:15;18.50;1.00
37530;DHT22;23374;52.758;6.872;2023-09-19T11:01:44;18.50;1.00
37530;DHT22;23374;52.758;6.872;2023-09-19T11:07:57;18.40;1.00
37530;DHT22;23374;52.758;6.872;2023-09-19T11:10:49;18.50;1.00
37530;DHT22;23374;52.758;6.872;2023-09-19T11:13:30;18.50;1.00
37530;DHT22;23374;52.758;6.872;2023-09-19T11:16:07;18.50;1.00
37530;DHT22;23374;52.758;6.872;2023-09-19T11:21:59;18.40;1.00
37530;DHT22;23374;52.758;6.872;2023-09-19T11:24:29;18.40;99.90
37530;DHT22;23374;52.758;6.872;2023-09-19T11:27:10;18.40;1.00
37530;DHT22;23374;52.758;6.872;2023-09-19T11:29:34;18.50;1.00
37530;DHT22;23374;52.758;6.872;2023-09-19T11:31:56;18.50;1.00
37530;DHT22;23374;52.758;6.872;2023-09-19T11:34:40;18.60;29.30
37530;DHT22;23374;52.758;6.872;2023-09-19T11:38:02;18.70;1.00
37530;DHT22;23374;52.758;6.872;2023-09-19T11:40:22;18.70;1.00
37530;DHT22;23374;52.758;6.872;2023-09-19T11:42:49;18.60;99.90
37530;DHT22;23374;52.758;6.872;2023-09-19T11:48:51;18.70;1.00
37530;DHT22;23374;52.758;6.872;2023-09-19T11:51:13;18.90;99.90
37530;DHT22;23374;52.758;6.872;2023-09-19T11:53:39;18.90;1.00
37530;DHT22;23374;52.758;6.872;2023-09-19T11:56:01;18.90;99.90
37530;DHT22;23374;52.758;6.872;2023-09-19T11:58:21;18.90;99.90
37530;DHT22;23374;52.758;6.872;2023-09-19T12:00:45;19.00;99.90
37530;DHT22;23374;52.758;6.872;2023-09-19T12:03:11;19.00;12.80
37530;DHT22;23374;52.758;6.872;2023-09-19T12:05:32;19.00;99.90
37530;DHT22;23374;52.758;6.872;2023-09-19T12:07:53;19.00;99.90
37530;DHT22;23374;52.758;6.872;2023-09-19T12:10:14;19.00;99.90
37530;DHT22;23374;52.758;6.872;2023-09-19T12:12:38;19.00;99.90
37530;DHT22;23374;52.758;6.872;2023-09-19T12:14:58;18.90;99.90
37530;DHT22;23374;52.758;6.872;2023-09-19T12:17:19;18.90;1.00
37530;DHT22;23374;52.758;6.872;2023-09-19T12:19:56;18.90;1.00
37530;DHT22;23374;52.758;6.872;2023-09-19T12:22:16;18.90;1.00
37530;DHT22;23374;52.758;6.872;2023-09-19T12:24:38;18.80;1.00
37530;DHT22;23374;52.758;6.872;2023-09-19T12:27:05;18.80;1.00
37530;DHT22;23374;52.758;6.872;2023-09-19T12:29:26;18.90;1.00
37530;DHT22;23374;52.758;6.872;2023-09-19T12:32:04;18.90;1.00
37530;DHT22;23374;52.758;6.872;2023-09-19T12:34:32;19.00;1.00
37530;DHT22;23374;52.758;6.872;2023-09-19T12:37:29;19.10;1.00
37530;DHT22;23374;52.758;6.872;2023-09-19T12:39:52;19.30;1.00
37530;DHT22;23374;52.758;6.872;2023-09-19T12:42:17;19.40;1.00
37530;DHT22;23374;52.758;6.872;2023-09-19T12:44:44;19.40;1.00
37530;DHT22;23374;52.758;6.872;2023-09-19T12:47:14;19.40;1.00
37530;DHT22;23374;52.758;6.872;2023-09-19T12:50:12;19.30;1.00
37530;DHT22;23374;52.758;6.872;2023-09-19T12:52:45;19.30;99.90
37530;DHT22;23374;52.758;6.872;2023-09-19T12:55:23;19.20;99.90
37530;DHT22;23374;52.758;6.872;2023-09-19T12:57:55;19.20;1.00
37530;DHT22;23374;52.758;6.872;2023-09-19T13:00:16;19.20;1.00
37530;DHT22;23374;52.758;6.872;2023-09-19T13:02:37;19.20;1.00
37530;DHT22;23374;52.758;6.872;2023-09-19T13:05:48;19.30;1.00
37530;DHT22;23374;52.758;6.872;2023-09-19T13:08:23;19.20;99.90
37530;DHT22;23374;52.758;6.872;2023-09-19T13:11:15;19.20;1.00
37530;DHT22;23374;52.758;6.872;2023-09-19T13:14:24;19.20;1.00
37530;DHT22;23374;52.758;6.872;2023-09-19T13:17:49;19.10;1.00
37530;DHT22;23374;52.758;6.872;2023-09-19T13:20:27;19.10;1.00
37530;DHT22;23374;52.758;6.872;2023-09-19T13:22:47;19.10;1.00
37530;DHT22;23374;52.758;6.872;2023-09-19T13:25:17;19.10;1.00
37530;DHT22;23374;52.758;6.872;2023-09-19T13:27:37;19.10;1.00
37530;DHT22;23374;52.758;6.872;2023-09-19T13:29:59;19.10;1.00
37530;DHT22;23374;52.758;6.872;2023-09-19T13:32:19;19.10;1.00
37530;DHT22;23374;52.758;6.872;2023-09-19T13:34:39;19.10;1.00
37530;DHT22;23374;52.758;6.872;2023-09-19T13:36:59;19.10;1.00
37530;DHT22;23374;52.758;6.872;2023-09-19T13:39:20;19.10;1.00
37530;DHT22;23374;52.758;6.872;2023-09-19T13:41:40;19.10;1.00
37530;DHT22;23374;52.758;6.872;2023-09-19T13:44:03;19.10;1.00
37530;DHT22;23374;52.758;6.872;2023-09-19T13:46:24;19.10;1.00
37530;DHT22;23374;52.758;6.872;2023-09-19T13:48:46;19.10;1.00
37530;DHT22;23374;52.758;6.872;2023-09-19T13:51:07;19.00;1.00
37530;DHT22;23374;52.758;6.872;2023-09-19T13:53:27;19.00;1.00
37530;DHT22;23374;52.758;6.872;2023-09-19T13:55:47;19.00;1.00
37530;DHT22;23374;52.758;6.872;2023-09-19T13:58:08;19.00;1.00
37530;DHT22;23374;52.758;6.872;2023-09-19T14:00:30;19.00;1.00
37530;DHT22;23374;52.758;6.872;2023-09-19T14:02:53;19.00;1.00
37530;DHT22;23374;52.758;6.872;2023-09-19T14:05:13;19.00;1.00
37530;DHT22;23374;52.758;6.872;2023-09-19T14:07:35;19.00;1.00
37530;DHT22;23374;52.758;6.872;2023-09-19T14:09:56;19.10;1.00
37530;DHT22;23374;52.758;6.872;2023-09-19T14:12:17;19.20;1.00
37530;DHT22;23374;52.758;6.872;2023-09-19T14:14:37;19.20;1.00
37530;DHT22;23374;52.758;6.872;2023-09-19T14:16:58;19.20;1.00
37530;DHT22;23374;52.758;6.872;2023-09-19T14:19:21;19.20;1.00
37530;DHT22;23374;52.758;6.872;2023-09-19T14:21:42;19.20;1.00
37530;DHT22;23374;52.758;6.872;2023-09-19T14:24:03;19.20;1.00
37530;DHT22;23374;52.758;6.872;2023-09-19T14:26:24;19.20;1.00
37530;DHT22;23374;52.758;6.872;2023-09-19T14:28:44;19.20;1.00
37530;DHT22;23374;52.758;6.872;2023-09-19T14:31:10;19.20;1.00
37530;DHT22;23374;52.758;6.872;2023-09-19T14:33:30;19.10;1.00
37530;DHT22;23374;52.758;6.872;2023-09-19T14:35:51;19.10;1.00
37530;DHT22;23374;52.758;6.872;2023-09-19T14:38:11;19.10;1.00
37530;DHT22;23374;52.758;6.872;2023-09-19T14:40:32;19.10;1.00
37530;DHT22;23374;52.758;6.872;2023-09-19T14:42:52;19.10;1.00
37530;DHT22;23374;52.758;6.872;2023-09-19T14:45:13;19.10;1.00
37530;DHT22;23374;52.758;6.872;2023-09-19T14:47:37;19.10;1.00
37530;DHT22;23374;52.758;6.872;2023-09-19T14:49:57;19.20;1.00
37530;DHT22;23374;52.758;6.872;2023-09-19T14:52:18;19.20;1.00
37530;DHT22;23374;52.758;6.872;2023-09-19T14:54:38;19.20;1.00
37530;DHT22;23374;52.758;6.872;2023-09-19T14:57:01;19.30;1.00
37530;DHT22;23374;52.758;6.872;2023-09-19T14:59:24;19.30;1.00
37530;DHT22;23374;52.758;6.872;2023-09-19T15:01:45;19.20;1.00
37530;DHT22;23374;52.758;6.872;2023-09-19T15:04:05;19.20;1.00
37530;DHT22;23374;52.758;6.872;2023-09-19T15:06:26;19.20;1.00
37530;DHT22;23374;52.758;6.872;2023-09-19T15:08:48;19.20;1.00
37530;DHT22;23374;52.758;6.872;2023-09-19T15:11:08;19.20;1.00
37530;DHT22;23374;52.758;6.872;2023-09-19T15:13:29;19.20;1.00
37530;DHT22;23374;52.758;6.872;2023-09-19T15:15:50;19.20;1.00
37530;DHT22;23374;52.758;6.872;2023-09-19T15:18:11;19.20;1.00
37530;DHT22;23374;52.758;6.872;2023-09-19T15:20:32;19.10;1.00
37530;DHT22;23374;52.758;6.872;2023-09-19T15:22:52;19.10;1.00
37530;DHT22;23374;52.758;6.872;2023-09-19T15:25:13;19.20;1.00
37530;DHT22;23374;52.758;6.872;2023-09-19T15:27:33;19.20;1.00
37530;DHT22;23374;52.758;6.872;2023-09-19T15:29:54;19.20;1.00
37530;DHT22;23374;52.758;6.872;2023-09-19T15:32:14;19.20;1.00
37530;DHT22;23374;52.758;6.872;2023-09-19T15:34:35;19.20;1.00
37530;DHT22;23374;52.758;6.872;2023-09-19T15:36:55;19.30;1.00
37530;DHT22;23374;52.758;6.872;2023-09-19T15:39:16;19.20;1.00
37530;DHT22;23374;52.758;6.872;2023-09-19T15:41:44;19.20;1.00
37530;DHT22;23374;52.758;6.872;2023-09-19T15:44:12;19.20;1.00
37530;DHT22;23374;52.758;6.872;2023-09-19T15:46:33;19.20;1.00
37530;DHT22;23374;52.758;6.872;2023-09-19T15:48:57;19.20;1.00
37530;DHT22;23374;52.758;6.872;2023-09-19T15:51:17;19.20;1.00